sensor_id;sensor_type;location;lat;lon;timestamp;temperature;humidity
19813;DHT22;10066;48.108;11.448;2022-12-20T00:00:05;1.50;99.90
19813;DHT22;10066;48.108;11.448;2022-12-20T00:02:32;1.50;99.90
19813;DHT22;10066;48.108;11.448;2022-12-20T00:04:59;1.50;99.90
19813;DHT22;10066;48.108;11.448;2022-12-20T00:07:26;1.50;99.90
19813;DHT22;10066;48.108;11.448;2022-12-20T00:09:53;1.50;99.90
19813;DHT22;10066;48.108;11.448;2022-12-20T00:12:21;1.50;99.90
19813;DHT22;10066;48.108;11.448;2022-12-20T00:14:48;1.50;99.90
19813;DHT22;10066;48.108;11.448;2022-12-20T00:17:15;1.50;99.90
19813;DHT22;10066;48.108;11.448;2022-12-20T00:19:42;1.50;99.90
19813;DHT22;10066;48.108;11.448;2022-12-20T00:22:09;1.50;99.90
19813;DHT22;10066;48.108;11.448;2022-12-20T00:24:37;1.60;99.90
19813;DHT22;10066;48.108;11.448;2022-12-20T00:27:03;1.60;99.90
19813;DHT22;10066;48.108;11.448;2022-12-20T00:29:32;1.60;99.90
19813;DHT22;10066;48.108;11.448;2022-12-20T00:31:59;1.60;99.90
19813;DHT22;10066;48.108;11.448;2022-12-20T00:34:26;1.70;99.90
19813;DHT22;10066;48.108;11.448;2022-12-20T00:36:52;1.70;99.90
19813;DHT22;10066;48.108;11.448;2022-12-20T00:39:19;1.70;99.90
19813;DHT22;10066;48.108;11.448;2022-12-20T00:41:46;1.70;99.90
19813;DHT22;10066;48.108;11.448;2022-12-20T00:44:13;1.70;99.90
19813;DHT22;10066;48.108;11.448;2022-12-20T00:46:41;1.70;99.90
19813;DHT22;10066;48.108;11.448;2022-12-20T00:49:08;1.80;99.90
19813;DHT22;10066;48.108;11.448;2022-12-20T00:51:35;1.80;99.90
19813;DHT22;10066;48.108;11.448;2022-12-20T00:54:02;1.80;99.90
19813;DHT22;10066;48.108;11.448;2022-12-20T00:56:29;1.90;99.90
19813;DHT22;10066;48.108;11.448;2022-12-20T00:58:57;1.90;99.90
19813;DHT22;10066;48.108;11.448;2022-12-20T01:01:26;1.90;99.90
19813;DHT22;10066;48.108;11.448;2022-12-20T01:03:56;2.00;99.90
19813;DHT22;10066;48.108;11.448;2022-12-20T01:06:23;2.00;99.90
19813;DHT22;10066;48.108;11.448;2022-12-20T01:08:50;2.00;99.90
19813;DHT22;10066;48.108;11.448;2022-12-20T01:11:19;2.00;99.90
19813;DHT22;10066;48.108;11.448;2022-12-20T01:13:49;2.00;99.90
19813;DHT22;10066;48.108;11.448;2022-12-20T01:16:17;2.10;99.90
19813;DHT22;10066;48.108;11.448;2022-12-20T01:18:45;2.10;99.90
19813;DHT22;10066;48.108;11.448;2022-12-20T01:21:15;2.10;99.90
19813;DHT22;10066;48.108;11.448;2022-12-20T01:23:42;2.10;99.90
19813;DHT22;10066;48.108;11.448;2022-12-20T01:26:12;2.20;99.90
19813;DHT22;10066;48.108;11.448;2022-12-20T01:28:44;2.20;99.90
19813;DHT22;10066;48.108;11.448;2022-12-20T01:31:14;2.20;99.90
19813;DHT22;10066;48.108;11.448;2022-12-20T01:33:42;2.30;99.90
19813;DHT22;10066;48.108;11.448;2022-12-20T01:36:16;2.30;99.90
19813;DHT22;10066;48.108;11.448;2022-12-20T01:38:44;2.30;99.90
19813;DHT22;10066;48.108;11.448;2022-12-20T01:41:14;2.30;99.90
19813;DHT22;10066;48.108;11.448;2022-12-20T01:43:47;2.30;99.90
19813;DHT22;10066;48.108;11.448;2022-12-20T01:46:18;2.30;99.90
19813;DHT22;10066;48.108;11.448;2022-12-20T01:48:48;2.30;99.90
19813;DHT22;10066;48.108;11.448;2022-12-20T01:51:19;2.30;99.90
19813;DHT22;10066;48.108;11.448;2022-12-20T01:53:48;2.30;99.90
19813;DHT22;10066;48.108;11.448;2022-12-20T01:56:17;2.30;99.90
19813;DHT22;10066;48.108;11.448;2022-12-20T01:58:47;2.30;99.90
19813;DHT22;10066;48.108;11.448;2022-12-20T02:01:14;2.30;99.90
19813;DHT22;10066;48.108;11.448;2022-12-20T02:03:42;2.30;99.90
19813;DHT22;10066;48.108;11.448;2022-12-20T02:06:15;2.30;99.90
19813;DHT22;10066;48.108;11.448;2022-12-20T02:08:45;2.40;99.90
19813;DHT22;10066;48.108;11.448;2022-12-20T02:11:27;2.40;99.90
19813;DHT22;10066;48.108;11.448;2022-12-20T02:14:07;2.40;99.90
19813;DHT22;10066;48.108;11.448;2022-12-20T02:16:47;2.40;99.90
19813;DHT22;10066;48.108;11.448;2022-12-20T02:19:30;2.40;99.90
19813;DHT22;10066;48.108;11.448;2022-12-20T02:22:08;2.40;99.90
19813;DHT22;10066;48.108;11.448;2022-12-20T02:24:57;2.40;99.90
19813;DHT22;10066;48.108;11.448;2022-12-20T02:30:17;2.40;99.90
19813;DHT22;10066;48.108;11.448;2022-12-20T02:32:49;2.40;99.90
19813;DHT22;10066;48.108;11.448;2022-12-20T02:35:22;2.40;99.90
19813;DHT22;10066;48.108;11.448;2022-12-20T02:37:52;2.40;99.90
19813;DHT22;10066;48.108;11.448;2022-12-20T02:40:22;2.40;99.90
19813;DHT22;10066;48.108;11.448;2022-12-20T02:42:53;2.40;99.90
19813;DHT22;10066;48.108;11.448;2022-12-20T02:45:26;2.40;99.90
19813;DHT22;10066;48.108;11.448;2022-12-20T02:47:57;2.50;99.90
19813;DHT22;10066;48.108;11.448;2022-12-20T02:50:27;2.50;99.90
19813;DHT22;10066;48.108;11.448;2022-12-20T02:52:57;2.50;99.90
19813;DHT22;10066;48.108;11.448;2022-12-20T02:55:32;2.50;99.90
19813;DHT22;10066;48.108;11.448;2022-12-20T02:58:05;2.60;99.90
19813;DHT22;10066;48.108;11.448;2022-12-20T03:00:39;2.60;99.90
19813;DHT22;10066;48.108;11.448;2022-12-20T03:03:08;2.60;99.90
19813;DHT22;10066;48.108;11.448;2022-12-20T03:05:51;2.60;99.90
19813;DHT22;10066;48.108;11.448;2022-12-20T03:08:20;2.60;99.90
19813;DHT22;10066;48.108;11.448;2022-12-20T03:10:47;2.60;99.90
19813;DHT22;10066;48.108;11.448;2022-12-20T03:13:15;2.60;99.90
19813;DHT22;10066;48.108;11.448;2022-12-20T03:15:44;2.70;99.90
19813;DHT22;10066;48.108;11.448;2022-12-20T03:18:11;2.70;99.90
19813;DHT22;10066;48.108;11.448;2022-12-20T03:20:38;2.70;99.90
19813;DHT22;10066;48.108;11.448;2022-12-20T03:23:05;2.70;99.90
19813;DHT22;10066;48.108;11.448;2022-12-20T03:25:32;2.70;99.90
19813;DHT22;10066;48.108;11.448;2022-12-20T03:27:59;2.70;99.90
19813;DHT22;10066;48.108;11.448;2022-12-20T03:30:26;2.80;99.90
19813;DHT22;10066;48.108;11.448;2022-12-20T03:32:54;2.70;99.90
19813;DHT22;10066;48.108;11.448;2022-12-20T03:35:21;2.70;99.90
19813;DHT22;10066;48.108;11.448;2022-12-20T03:37:48;2.80;99.90
19813;DHT22;10066;48.108;11.448;2022-12-20T03:40:15;2.70;99.90
19813;DHT22;10066;48.108;11.448;2022-12-20T03:42:42;2.80;99.90
19813;DHT22;10066;48.108;11.448;2022-12-20T03:45:09;2.80;99.90
19813;DHT22;10066;48.108;11.448;2022-12-20T03:47:36;2.70;99.90
19813;DHT22;10066;48.108;11.448;2022-12-20T03:50:06;2.80;99.90
19813;DHT22;10066;48.108;11.448;2022-12-20T03:52:34;2.80;99.90
19813;DHT22;10066;48.108;11.448;2022-12-20T03:55:01;2.80;99.90
19813;DHT22;10066;48.108;11.448;2022-12-20T03:57:29;2.80;99.90
19813;DHT22;10066;48.108;11.448;2022-12-20T03:59:56;2.80;99.90
19813;DHT22;10066;48.108;11.448;2022-12-20T04:02:23;2.90;99.90
19813;DHT22;10066;48.108;11.448;2022-12-20T04:04:50;2.80;99.90
19813;DHT22;10066;48.108;11.448;2022-12-20T04:07:18;2.90;99.90
19813;DHT22;10066;48.108;11.448;2022-12-20T04:09:45;2.90;99.90
19813;DHT22;10066;48.108;11.448;2022-12-20T04:12:12;2.90;99.90
19813;DHT22;10066;48.108;11.448;2022-12-20T04:14:39;2.90;99.90
19813;DHT22;10066;48.108;11.448;2022-12-20T04:17:06;2.90;99.90
19813;DHT22;10066;48.108;11.448;2022-12-20T04:19:34;3.00;99.90
19813;DHT22;10066;48.108;11.448;2022-12-20T04:22:01;3.00;99.90
19813;DHT22;10066;48.108;11.448;2022-12-20T04:24:29;3.00;99.90
19813;DHT22;10066;48.108;11.448;2022-12-20T04:26:56;3.00;99.90
19813;DHT22;10066;48.108;11.448;2022-12-20T04:29:23;3.00;99.90
19813;DHT22;10066;48.108;11.448;2022-12-20T04:31:50;3.00;99.90
19813;DHT22;10066;48.108;11.448;2022-12-20T04:34:17;3.00;99.90
19813;DHT22;10066;48.108;11.448;2022-12-20T04:36:44;3.10;99.90
19813;DHT22;10066;48.108;11.448;2022-12-20T04:39:11;3.10;99.90
19813;DHT22;10066;48.108;11.448;2022-12-20T04:41:39;3.00;99.90
19813;DHT22;10066;48.108;11.448;2022-12-20T04:44:06;3.00;99.90
19813;DHT22;10066;48.108;11.448;2022-12-20T04:46:33;3.00;99.90
19813;DHT22;10066;48.108;11.448;2022-12-20T04:49:00;3.10;99.90
19813;DHT22;10066;48.108;11.448;2022-12-20T04:51:27;3.10;99.90
19813;DHT22;10066;48.108;11.448;2022-12-20T04:53:55;3.00;99.90
19813;DHT22;10066;48.108;11.448;2022-12-20T04:56:22;3.00;99.90
19813;DHT22;10066;48.108;11.448;2022-12-20T04:58:52;3.00;99.90
19813;DHT22;10066;48.108;11.448;2022-12-20T05:01:20;3.00;99.90
19813;DHT22;10066;48.108;11.448;2022-12-20T05:03:47;2.90;99.90
19813;DHT22;10066;48.108;11.448;2022-12-20T05:06:15;2.90;99.90
19813;DHT22;10066;48.108;11.448;2022-12-20T05:08:42;2.90;99.90
19813;DHT22;10066;48.108;11.448;2022-12-20T05:11:13;2.90;99.90
19813;DHT22;10066;48.108;11.448;2022-12-20T05:13:40;2.90;99.90
19813;DHT22;10066;48.108;11.448;2022-12-20T05:16:09;2.90;99.90
19813;DHT22;10066;48.108;11.448;2022-12-20T05:18:35;2.90;99.90
19813;DHT22;10066;48.108;11.448;2022-12-20T05:21:03;2.90;99.90
19813;DHT22;10066;48.108;11.448;2022-12-20T05:23:48;2.90;99.90
19813;DHT22;10066;48.108;11.448;2022-12-20T05:26:34;3.00;99.90
19813;DHT22;10066;48.108;11.448;2022-12-20T05:29:02;3.00;99.90
19813;DHT22;10066;48.108;11.448;2022-12-20T05:31:31;3.00;99.90
19813;DHT22;10066;48.108;11.448;2022-12-20T05:33:58;3.00;99.90
19813;DHT22;10066;48.108;11.448;2022-12-20T05:36:25;3.00;99.90
19813;DHT22;10066;48.108;11.448;2022-12-20T05:38:52;3.00;99.90
19813;DHT22;10066;48.108;11.448;2022-12-20T05:41:19;3.00;99.90
19813;DHT22;10066;48.108;11.448;2022-12-20T05:43:45;3.00;99.90
19813;DHT22;10066;48.108;11.448;2022-12-20T05:46:12;3.00;99.90
19813;DHT22;10066;48.108;11.448;2022-12-20T05:48:41;3.00;99.90
19813;DHT22;10066;48.108;11.448;2022-12-20T05:51:08;3.10;99.90
19813;DHT22;10066;48.108;11.448;2022-12-20T05:53:35;3.00;99.90
19813;DHT22;10066;48.108;11.448;2022-12-20T05:56:04;3.00;99.90
19813;DHT22;10066;48.108;11.448;2022-12-20T05:58:31;3.00;99.90
19813;DHT22;10066;48.108;11.448;2022-12-20T06:00:59;3.00;99.90
19813;DHT22;10066;48.108;11.448;2022-12-20T06:03:26;3.00;99.90
19813;DHT22;10066;48.108;11.448;2022-12-20T06:05:54;3.00;99.90
19813;DHT22;10066;48.108;11.448;2022-12-20T06:08:22;3.00;99.90
19813;DHT22;10066;48.108;11.448;2022-12-20T06:10:49;2.90;99.90
19813;DHT22;10066;48.108;11.448;2022-12-20T06:13:17;2.80;99.90
19813;DHT22;10066;48.108;11.448;2022-12-20T06:15:44;2.80;99.90
19813;DHT22;10066;48.108;11.448;2022-12-20T06:18:11;2.70;99.90
19813;DHT22;10066;48.108;11.448;2022-12-20T06:20:38;2.70;99.90
19813;DHT22;10066;48.108;11.448;2022-12-20T06:23:07;2.60;99.90
19813;DHT22;10066;48.108;11.448;2022-12-20T06:25:35;2.60;99.90
19813;DHT22;10066;48.108;11.448;2022-12-20T06:28:04;2.60;99.90
19813;DHT22;10066;48.108;11.448;2022-12-20T06:30:32;2.70;99.90
19813;DHT22;10066;48.108;11.448;2022-12-20T06:32:59;2.70;99.90
19813;DHT22;10066;48.108;11.448;2022-12-20T06:35:26;2.80;99.90
19813;DHT22;10066;48.108;11.448;2022-12-20T06:37:53;2.80;99.90
19813;DHT22;10066;48.108;11.448;2022-12-20T06:40:22;2.90;99.90
19813;DHT22;10066;48.108;11.448;2022-12-20T06:42:49;2.90;99.90
19813;DHT22;10066;48.108;11.448;2022-12-20T06:45:17;3.00;99.90
19813;DHT22;10066;48.108;11.448;2022-12-20T06:47:44;3.00;99.90
19813;DHT22;10066;48.108;11.448;2022-12-20T06:50:11;3.10;99.90
19813;DHT22;10066;48.108;11.448;2022-12-20T06:52:38;3.10;99.90
19813;DHT22;10066;48.108;11.448;2022-12-20T06:55:05;3.10;99.90
19813;DHT22;10066;48.108;11.448;2022-12-20T06:57:34;3.10;99.90
19813;DHT22;10066;48.108;11.448;2022-12-20T07:00:01;3.20;99.90
19813;DHT22;10066;48.108;11.448;2022-12-20T07:02:28;3.20;99.90
19813;DHT22;10066;48.108;11.448;2022-12-20T07:04:55;3.20;99.90
19813;DHT22;10066;48.108;11.448;2022-12-20T07:07:22;3.20;99.90
19813;DHT22;10066;48.108;11.448;2022-12-20T07:09:48;3.30;99.90
19813;DHT22;10066;48.108;11.448;2022-12-20T07:12:15;3.30;99.90
19813;DHT22;10066;48.108;11.448;2022-12-20T07:14:45;3.40;99.90
19813;DHT22;10066;48.108;11.448;2022-12-20T07:17:12;3.30;99.90
19813;DHT22;10066;48.108;11.448;2022-12-20T07:19:39;3.40;99.90
19813;DHT22;10066;48.108;11.448;2022-12-20T07:22:06;3.50;99.90
19813;DHT22;10066;48.108;11.448;2022-12-20T07:24:33;3.50;99.90
19813;DHT22;10066;48.108;11.448;2022-12-20T07:27:00;3.50;99.90
19813;DHT22;10066;48.108;11.448;2022-12-20T07:29:27;3.60;99.90
19813;DHT22;10066;48.108;11.448;2022-12-20T07:31:55;3.60;99.90
19813;DHT22;10066;48.108;11.448;2022-12-20T07:34:22;3.70;99.90
19813;DHT22;10066;48.108;11.448;2022-12-20T07:36:49;3.70;99.90
19813;DHT22;10066;48.108;11.448;2022-12-20T07:39:16;3.70;99.90
19813;DHT22;10066;48.108;11.448;2022-12-20T07:41:43;3.70;99.90
19813;DHT22;10066;48.108;11.448;2022-12-20T07:44:10;3.80;99.90
19813;DHT22;10066;48.108;11.448;2022-12-20T07:46:37;3.80;99.90
19813;DHT22;10066;48.108;11.448;2022-12-20T07:49:05;3.80;99.90
19813;DHT22;10066;48.108;11.448;2022-12-20T07:51:35;3.90;99.90
19813;DHT22;10066;48.108;11.448;2022-12-20T07:54:05;3.90;99.90
19813;DHT22;10066;48.108;11.448;2022-12-20T07:56:38;3.90;99.90
19813;DHT22;10066;48.108;11.448;2022-12-20T07:59:07;4.00;99.90
19813;DHT22;10066;48.108;11.448;2022-12-20T08:01:36;4.00;99.90
19813;DHT22;10066;48.108;11.448;2022-12-20T08:04:06;4.00;99.90
19813;DHT22;10066;48.108;11.448;2022-12-20T08:06:36;4.10;99.90
19813;DHT22;10066;48.108;11.448;2022-12-20T08:09:05;4.10;99.90
19813;DHT22;10066;48.108;11.448;2022-12-20T08:11:33;4.10;99.90
19813;DHT22;10066;48.108;11.448;2022-12-20T08:14:02;4.20;99.90
19813;DHT22;10066;48.108;11.448;2022-12-20T08:18:58;4.20;99.90
19813;DHT22;10066;48.108;11.448;2022-12-20T08:21:26;4.20;99.90
19813;DHT22;10066;48.108;11.448;2022-12-20T08:23:53;4.20;99.90
19813;DHT22;10066;48.108;11.448;2022-12-20T08:26:21;4.30;99.90
19813;DHT22;10066;48.108;11.448;2022-12-20T08:28:48;4.30;99.90
19813;DHT22;10066;48.108;11.448;2022-12-20T08:31:15;4.30;99.90
19813;DHT22;10066;48.108;11.448;2022-12-20T08:33:42;4.40;99.90
19813;DHT22;10066;48.108;11.448;2022-12-20T08:36:10;4.40;99.90
19813;DHT22;10066;48.108;11.448;2022-12-20T08:38:39;4.40;99.90
19813;DHT22;10066;48.108;11.448;2022-12-20T08:41:08;4.50;99.90
19813;DHT22;10066;48.108;11.448;2022-12-20T08:43:36;4.50;99.90
19813;DHT22;10066;48.108;11.448;2022-12-20T08:46:03;4.60;99.90
19813;DHT22;10066;48.108;11.448;2022-12-20T08:48:31;4.70;99.90
19813;DHT22;10066;48.108;11.448;2022-12-20T08:51:00;4.70;99.90
19813;DHT22;10066;48.108;11.448;2022-12-20T08:53:27;4.80;99.90
19813;DHT22;10066;48.108;11.448;2022-12-20T08:56:03;4.80;99.90
19813;DHT22;10066;48.108;11.448;2022-12-20T08:58:30;4.90;99.90
19813;DHT22;10066;48.108;11.448;2022-12-20T09:00:58;4.90;99.90
19813;DHT22;10066;48.108;11.448;2022-12-20T09:03:27;5.00;99.90
19813;DHT22;10066;48.108;11.448;2022-12-20T09:05:55;5.10;99.90
19813;DHT22;10066;48.108;11.448;2022-12-20T09:08:22;5.10;99.90
19813;DHT22;10066;48.108;11.448;2022-12-20T09:10:48;5.10;99.90
19813;DHT22;10066;48.108;11.448;2022-12-20T09:13:17;5.20;99.90
19813;DHT22;10066;48.108;11.448;2022-12-20T09:15:44;5.30;99.90
19813;DHT22;10066;48.108;11.448;2022-12-20T09:18:10;5.30;99.90
19813;DHT22;10066;48.108;11.448;2022-12-20T09:20:41;5.40;99.90
19813;DHT22;10066;48.108;11.448;2022-12-20T09:23:09;5.40;99.90
19813;DHT22;10066;48.108;11.448;2022-12-20T09:25:36;5.40;99.90
19813;DHT22;10066;48.108;11.448;2022-12-20T09:28:04;5.50;99.90
19813;DHT22;10066;48.108;11.448;2022-12-20T09:30:32;5.60;99.90
19813;DHT22;10066;48.108;11.448;2022-12-20T09:32:59;5.60;99.90
19813;DHT22;10066;48.108;11.448;2022-12-20T09:35:26;5.70;99.90
19813;DHT22;10066;48.108;11.448;2022-12-20T09:37:52;5.70;99.90
19813;DHT22;10066;48.108;11.448;2022-12-20T09:40:21;5.70;99.90
19813;DHT22;10066;48.108;11.448;2022-12-20T09:42:49;5.80;99.90
19813;DHT22;10066;48.108;11.448;2022-12-20T09:45:21;5.80;99.90
19813;DHT22;10066;48.108;11.448;2022-12-20T09:47:51;5.90;99.90
19813;DHT22;10066;48.108;11.448;2022-12-20T09:50:20;5.90;99.90
19813;DHT22;10066;48.108;11.448;2022-12-20T09:52:59;6.10;99.90
19813;DHT22;10066;48.108;11.448;2022-12-20T09:55:33;6.10;99.90
19813;DHT22;10066;48.108;11.448;2022-12-20T09:58:14;6.20;99.90
19813;DHT22;10066;48.108;11.448;2022-12-20T10:00:46;6.30;99.90
19813;DHT22;10066;48.108;11.448;2022-12-20T10:03:19;6.40;99.90
19813;DHT22;10066;48.108;11.448;2022-12-20T10:05:50;6.50;99.90
19813;DHT22;10066;48.108;11.448;2022-12-20T10:08:36;6.50;99.90
19813;DHT22;10066;48.108;11.448;2022-12-20T10:11:11;6.60;99.90
19813;DHT22;10066;48.108;11.448;2022-12-20T10:13:53;6.60;99.90
19813;DHT22;10066;48.108;11.448;2022-12-20T10:16:34;6.70;99.90
19813;DHT22;10066;48.108;11.448;2022-12-20T10:19:12;6.80;99.90
19813;DHT22;10066;48.108;11.448;2022-12-20T10:21:46;6.80;99.90
19813;DHT22;10066;48.108;11.448;2022-12-20T10:24:18;6.90;99.90
19813;DHT22;10066;48.108;11.448;2022-12-20T10:26:45;7.00;99.90
19813;DHT22;10066;48.108;11.448;2022-12-20T10:29:15;7.10;99.90
19813;DHT22;10066;48.108;11.448;2022-12-20T10:31:42;7.10;99.90
19813;DHT22;10066;48.108;11.448;2022-12-20T10:34:10;7.20;99.90
19813;DHT22;10066;48.108;11.448;2022-12-20T10:36:37;7.20;99.90
19813;DHT22;10066;48.108;11.448;2022-12-20T10:39:06;7.20;99.90
19813;DHT22;10066;48.108;11.448;2022-12-20T10:41:46;7.30;99.90
19813;DHT22;10066;48.108;11.448;2022-12-20T10:44:19;7.40;99.90
19813;DHT22;10066;48.108;11.448;2022-12-20T10:46:51;7.50;99.90
19813;DHT22;10066;48.108;11.448;2022-12-20T10:49:28;7.60;99.90
19813;DHT22;10066;48.108;11.448;2022-12-20T10:51:58;7.70;99.90
19813;DHT22;10066;48.108;11.448;2022-12-20T10:56:58;7.90;99.90
19813;DHT22;10066;48.108;11.448;2022-12-20T10:59:31;8.10;99.90
19813;DHT22;10066;48.108;11.448;2022-12-20T11:01:58;8.10;99.90
19813;DHT22;10066;48.108;11.448;2022-12-20T11:04:28;8.20;99.90
19813;DHT22;10066;48.108;11.448;2022-12-20T11:06:56;8.30;99.90
19813;DHT22;10066;48.108;11.448;2022-12-20T11:09:29;8.30;99.90
19813;DHT22;10066;48.108;11.448;2022-12-20T11:11:58;8.30;99.90
19813;DHT22;10066;48.108;11.448;2022-12-20T11:14:25;8.40;99.90
19813;DHT22;10066;48.108;11.448;2022-12-20T11:16:55;8.50;99.90
19813;DHT22;10066;48.108;11.448;2022-12-20T11:19:35;8.60;99.90
19813;DHT22;10066;48.108;11.448;2022-12-20T11:22:10;8.60;99.90
19813;DHT22;10066;48.108;11.448;2022-12-20T11:24:45;8.70;99.90
19813;DHT22;10066;48.108;11.448;2022-12-20T11:27:19;8.70;99.90
19813;DHT22;10066;48.108;11.448;2022-12-20T11:30:06;8.70;99.90
19813;DHT22;10066;48.108;11.448;2022-12-20T11:32:48;8.70;99.90
19813;DHT22;10066;48.108;11.448;2022-12-20T11:35:27;8.80;99.90
19813;DHT22;10066;48.108;11.448;2022-12-20T11:38:03;8.90;99.90
19813;DHT22;10066;48.108;11.448;2022-12-20T11:40:36;8.90;99.90
19813;DHT22;10066;48.108;11.448;2022-12-20T11:43:27;9.00;99.90
19813;DHT22;10066;48.108;11.448;2022-12-20T11:46:08;9.10;99.90
19813;DHT22;10066;48.108;11.448;2022-12-20T11:48:51;9.10;99.90
19813;DHT22;10066;48.108;11.448;2022-12-20T11:51:30;9.10;99.90
19813;DHT22;10066;48.108;11.448;2022-12-20T11:54:06;9.10;99.90
19813;DHT22;10066;48.108;11.448;2022-12-20T11:56:37;9.10;99.90
19813;DHT22;10066;48.108;11.448;2022-12-20T11:59:11;9.00;99.90
19813;DHT22;10066;48.108;11.448;2022-12-20T12:01:44;9.00;99.90
19813;DHT22;10066;48.108;11.448;2022-12-20T12:04:16;9.00;99.90
19813;DHT22;10066;48.108;11.448;2022-12-20T12:06:48;8.90;99.90
19813;DHT22;10066;48.108;11.448;2022-12-20T12:09:22;8.90;99.90
19813;DHT22;10066;48.108;11.448;2022-12-20T12:11:55;8.90;99.90
19813;DHT22;10066;48.108;11.448;2022-12-20T12:14:30;8.90;99.90
19813;DHT22;10066;48.108;11.448;2022-12-20T12:17:06;8.90;99.90
19813;DHT22;10066;48.108;11.448;2022-12-20T12:19:36;8.90;99.90
19813;DHT22;10066;48.108;11.448;2022-12-20T12:22:12;8.90;99.90
19813;DHT22;10066;48.108;11.448;2022-12-20T12:24:44;9.00;99.90
19813;DHT22;10066;48.108;11.448;2022-12-20T12:27:20;8.90;99.90
19813;DHT22;10066;48.108;11.448;2022-12-20T12:29:47;8.90;99.90
19813;DHT22;10066;48.108;11.448;2022-12-20T12:32:17;8.90;99.90
19813;DHT22;10066;48.108;11.448;2022-12-20T12:34:57;8.90;99.90
19813;DHT22;10066;48.108;11.448;2022-12-20T12:40:49;8.80;99.90
19813;DHT22;10066;48.108;11.448;2022-12-20T12:43:31;8.80;99.90
19813;DHT22;10066;48.108;11.448;2022-12-20T12:46:09;8.80;99.90
19813;DHT22;10066;48.108;11.448;2022-12-20T12:48:44;8.80;99.90
19813;DHT22;10066;48.108;11.448;2022-12-20T12:51:13;8.80;99.90
19813;DHT22;10066;48.108;11.448;2022-12-20T12:53:44;8.70;99.90
19813;DHT22;10066;48.108;11.448;2022-12-20T12:56:39;8.70;99.90
19813;DHT22;10066;48.108;11.448;2022-12-20T13:02:32;8.70;99.90
19813;DHT22;10066;48.108;11.448;2022-12-20T13:05:25;8.60;99.90
19813;DHT22;10066;48.108;11.448;2022-12-20T13:07:49;8.50;99.90
19813;DHT22;10066;48.108;11.448;2022-12-20T13:10:56;8.50;99.90
19813;DHT22;10066;48.108;11.448;2022-12-20T13:13:24;8.40;99.90
19813;DHT22;10066;48.108;11.448;2022-12-20T13:16:12;8.40;99.90
19813;DHT22;10066;48.108;11.448;2022-12-20T13:19:09;8.40;99.90
19813;DHT22;10066;48.108;11.448;2022-12-20T13:21:39;8.30;99.90
19813;DHT22;10066;48.108;11.448;2022-12-20T13:24:51;8.30;99.90
19813;DHT22;10066;48.108;11.448;2022-12-20T13:27:36;8.20;99.90
19813;DHT22;10066;48.108;11.448;2022-12-20T13:30:22;8.20;99.90
19813;DHT22;10066;48.108;11.448;2022-12-20T13:32:55;8.30;99.90
19813;DHT22;10066;48.108;11.448;2022-12-20T13:35:45;8.20;99.90
19813;DHT22;10066;48.108;11.448;2022-12-20T13:38:48;8.10;99.90
19813;DHT22;10066;48.108;11.448;2022-12-20T13:41:32;8.10;99.90
19813;DHT22;10066;48.108;11.448;2022-12-20T13:44:18;8.10;99.90
19813;DHT22;10066;48.108;11.448;2022-12-20T13:46:49;8.00;99.90
19813;DHT22;10066;48.108;11.448;2022-12-20T13:49:22;8.00;99.90
19813;DHT22;10066;48.108;11.448;2022-12-20T13:52:11;8.00;99.90
19813;DHT22;10066;48.108;11.448;2022-12-20T13:54:39;7.90;99.90
19813;DHT22;10066;48.108;11.448;2022-12-20T13:57:14;7.80;99.90
19813;DHT22;10066;48.108;11.448;2022-12-20T13:59:45;7.80;99.90
19813;DHT22;10066;48.108;11.448;2022-12-20T14:02:19;7.70;99.90
19813;DHT22;10066;48.108;11.448;2022-12-20T14:04:56;7.60;99.90
19813;DHT22;10066;48.108;11.448;2022-12-20T14:07:24;7.60;99.90
19813;DHT22;10066;48.108;11.448;2022-12-20T14:09:57;7.60;99.90
19813;DHT22;10066;48.108;11.448;2022-12-20T14:12:26;7.60;99.90
19813;DHT22;10066;48.108;11.448;2022-12-20T14:14:54;7.60;99.90
19813;DHT22;10066;48.108;11.448;2022-12-20T14:17:24;7.50;99.90
19813;DHT22;10066;48.108;11.448;2022-12-20T14:20:14;7.50;99.90
19813;DHT22;10066;48.108;11.448;2022-12-20T14:22:48;7.40;99.90
19813;DHT22;10066;48.108;11.448;2022-12-20T14:25:31;7.50;99.90
19813;DHT22;10066;48.108;11.448;2022-12-20T14:28:07;7.50;99.90
19813;DHT22;10066;48.108;11.448;2022-12-20T14:30:42;7.50;99.90
19813;DHT22;10066;48.108;11.448;2022-12-20T14:33:27;7.50;99.90
19813;DHT22;10066;48.108;11.448;2022-12-20T14:35:55;7.40;99.90
19813;DHT22;10066;48.108;11.448;2022-12-20T14:38:23;7.30;99.90
19813;DHT22;10066;48.108;11.448;2022-12-20T14:40:55;7.20;99.90
19813;DHT22;10066;48.108;11.448;2022-12-20T14:43:27;7.10;99.90
19813;DHT22;10066;48.108;11.448;2022-12-20T14:46:18;7.00;99.90
19813;DHT22;10066;48.108;11.448;2022-12-20T14:48:45;6.80;99.90
19813;DHT22;10066;48.108;11.448;2022-12-20T14:51:13;6.70;99.90
19813;DHT22;10066;48.108;11.448;2022-12-20T14:53:51;6.60;99.90
19813;DHT22;10066;48.108;11.448;2022-12-20T14:56:20;6.60;99.90
19813;DHT22;10066;48.108;11.448;2022-12-20T14:59:04;6.50;99.90
19813;DHT22;10066;48.108;11.448;2022-12-20T15:01:32;6.40;99.90
19813;DHT22;10066;48.108;11.448;2022-12-20T15:03:59;6.40;99.90
19813;DHT22;10066;48.108;11.448;2022-12-20T15:06:34;6.40;99.90
19813;DHT22;10066;48.108;11.448;2022-12-20T15:09:03;6.30;99.90
19813;DHT22;10066;48.108;11.448;2022-12-20T15:11:33;6.30;99.90
19813;DHT22;10066;48.108;11.448;2022-12-20T15:14:08;6.20;99.90
19813;DHT22;10066;48.108;11.448;2022-12-20T15:16:45;6.20;99.90
19813;DHT22;10066;48.108;11.448;2022-12-20T15:19:13;6.20;99.90
19813;DHT22;10066;48.108;11.448;2022-12-20T15:21:41;6.10;99.90
19813;DHT22;10066;48.108;11.448;2022-12-20T15:24:12;6.10;99.90
19813;DHT22;10066;48.108;11.448;2022-12-20T15:26:39;6.00;99.90
19813;DHT22;10066;48.108;11.448;2022-12-20T15:29:14;6.00;99.90
19813;DHT22;10066;48.108;11.448;2022-12-20T15:31:42;5.90;99.90
19813;DHT22;10066;48.108;11.448;2022-12-20T15:34:13;5.90;99.90
19813;DHT22;10066;48.108;11.448;2022-12-20T15:36:40;5.80;99.90
19813;DHT22;10066;48.108;11.448;2022-12-20T15:39:09;5.80;99.90
19813;DHT22;10066;48.108;11.448;2022-12-20T15:41:40;5.80;99.90
19813;DHT22;10066;48.108;11.448;2022-12-20T15:44:15;5.70;99.90
19813;DHT22;10066;48.108;11.448;2022-12-20T15:46:42;5.70;99.90
19813;DHT22;10066;48.108;11.448;2022-12-20T15:49:15;5.70;99.90
19813;DHT22;10066;48.108;11.448;2022-12-20T15:51:44;5.60;99.90
19813;DHT22;10066;48.108;11.448;2022-12-20T15:54:19;5.60;99.90
19813;DHT22;10066;48.108;11.448;2022-12-20T15:56:47;5.60;99.90
19813;DHT22;10066;48.108;11.448;2022-12-20T15:59:16;5.50;99.90
19813;DHT22;10066;48.108;11.448;2022-12-20T16:01:43;5.50;99.90
19813;DHT22;10066;48.108;11.448;2022-12-20T16:04:13;5.50;99.90
19813;DHT22;10066;48.108;11.448;2022-12-20T16:06:46;5.50;99.90